sensor_id;sensor_type;location;lat;lon;timestamp;P1;durP1;ratioP1;P2;durP2;ratioP2
73089;SDS011;61269;49.450;8.610;2023-03-23T00:02:04;4.13;;;1.35;;
73089;SDS011;61269;49.450;8.610;2023-03-23T00:04:32;3.80;;;1.45;;
73089;SDS011;61269;49.450;8.610;2023-03-23T00:07:00;6.07;;;1.40;;
73089;SDS011;61269;49.450;8.610;2023-03-23T00:09:28;5.75;;;1.52;;
73089;SDS011;61269;49.450;8.610;2023-03-23T00:12:00;4.43;;;1.40;;
73089;SDS011;61269;49.450;8.610;2023-03-23T00:14:31;6.07;;;1.70;;
73089;SDS011;61269;49.450;8.610;2023-03-23T00:17:07;4.05;;;1.23;;
73089;SDS011;61269;49.450;8.610;2023-03-23T00:19:38;3.60;;;1.50;;
73089;SDS011;61269;49.450;8.610;2023-03-23T00:22:12;6.15;;;1.35;;
73089;SDS011;61269;49.450;8.610;2023-03-23T00:24:40;3.30;;;1.42;;
73089;SDS011;61269;49.450;8.610;2023-03-23T00:27:08;4.85;;;1.50;;
73089;SDS011;61269;49.450;8.610;2023-03-23T00:29:38;4.15;;;1.50;;
73089;SDS011;61269;49.450;8.610;2023-03-23T00:32:06;5.43;;;1.53;;
73089;SDS011;61269;49.450;8.610;2023-03-23T00:34:39;4.15;;;1.50;;
73089;SDS011;61269;49.450;8.610;2023-03-23T00:37:09;4.85;;;1.70;;
73089;SDS011;61269;49.450;8.610;2023-03-23T00:39:37;3.38;;;1.50;;
73089;SDS011;61269;49.450;8.610;2023-03-23T00:42:05;3.80;;;1.38;;
73089;SDS011;61269;49.450;8.610;2023-03-23T00:44:32;4.70;;;1.90;;
73089;SDS011;61269;49.450;8.610;2023-03-23T00:47:01;5.65;;;1.42;;
73089;SDS011;61269;49.450;8.610;2023-03-23T00:49:30;3.85;;;1.23;;
73089;SDS011;61269;49.450;8.610;2023-03-23T00:52:02;3.63;;;1.40;;
73089;SDS011;61269;49.450;8.610;2023-03-23T00:54:30;3.35;;;1.08;;
73089;SDS011;61269;49.450;8.610;2023-03-23T00:56:58;4.13;;;1.30;;
73089;SDS011;61269;49.450;8.610;2023-03-23T00:59:25;5.07;;;1.85;;
73089;SDS011;61269;49.450;8.610;2023-03-23T01:01:54;4.63;;;1.52;;
73089;SDS011;61269;49.450;8.610;2023-03-23T01:04:21;4.25;;;1.35;;
73089;SDS011;61269;49.450;8.610;2023-03-23T01:06:49;4.78;;;1.00;;
73089;SDS011;61269;49.450;8.610;2023-03-23T01:09:18;4.10;;;1.60;;
73089;SDS011;61269;49.450;8.610;2023-03-23T01:11:48;4.95;;;1.33;;
73089;SDS011;61269;49.450;8.610;2023-03-23T01:14:17;3.20;;;1.20;;
73089;SDS011;61269;49.450;8.610;2023-03-23T01:16:47;3.22;;;1.33;;
73089;SDS011;61269;49.450;8.610;2023-03-23T01:19:15;3.67;;;1.42;;
73089;SDS011;61269;49.450;8.610;2023-03-23T01:21:42;3.20;;;1.30;;
73089;SDS011;61269;49.450;8.610;2023-03-23T01:24:09;4.40;;;1.52;;
73089;SDS011;61269;49.450;8.610;2023-03-23T01:26:38;3.22;;;1.30;;
73089;SDS011;61269;49.450;8.610;2023-03-23T01:29:05;4.10;;;1.67;;
73089;SDS011;61269;49.450;8.610;2023-03-23T01:31:34;3.67;;;1.30;;
73089;SDS011;61269;49.450;8.610;2023-03-23T01:34:03;4.13;;;1.37;;
73089;SDS011;61269;49.450;8.610;2023-03-23T01:36:31;3.00;;;1.20;;
73089;SDS011;61269;49.450;8.610;2023-03-23T01:39:02;3.72;;;1.00;;
73089;SDS011;61269;49.450;8.610;2023-03-23T01:41:31;3.85;;;1.17;;
73089;SDS011;61269;49.450;8.610;2023-03-23T01:44:06;2.95;;;1.40;;
73089;SDS011;61269;49.450;8.610;2023-03-23T01:47:07;2.63;;;0.90;;
73089;SDS011;61269;49.450;8.610;2023-03-23T01:49:36;4.07;;;1.42;;
73089;SDS011;61269;49.450;8.610;2023-03-23T01:52:06;3.78;;;1.50;;
73089;SDS011;61269;49.450;8.610;2023-03-23T01:54:36;3.13;;;1.08;;
73089;SDS011;61269;49.450;8.610;2023-03-23T01:57:06;3.47;;;1.17;;
73089;SDS011;61269;49.450;8.610;2023-03-23T01:59:34;3.00;;;1.23;;
73089;SDS011;61269;49.450;8.610;2023-03-23T02:02:18;3.83;;;1.02;;
73089;SDS011;61269;49.450;8.610;2023-03-23T02:04:48;3.35;;;1.20;;
73089;SDS011;61269;49.450;8.610;2023-03-23T02:07:16;4.18;;;1.08;;
73089;SDS011;61269;49.450;8.610;2023-03-23T02:09:45;3.45;;;1.08;;
73089;SDS011;61269;49.450;8.610;2023-03-23T02:12:12;3.77;;;1.20;;
73089;SDS011;61269;49.450;8.610;2023-03-23T02:14:40;2.72;;;1.10;;
73089;SDS011;61269;49.450;8.610;2023-03-23T02:17:08;3.05;;;0.90;;
73089;SDS011;61269;49.450;8.610;2023-03-23T02:19:46;4.03;;;1.48;;
73089;SDS011;61269;49.450;8.610;2023-03-23T02:25:17;2.90;;;1.07;;
73089;SDS011;61269;49.450;8.610;2023-03-23T02:31:01;3.38;;;1.00;;
73089;SDS011;61269;49.450;8.610;2023-03-23T02:33:41;5.43;;;1.27;;
73089;SDS011;61269;49.450;8.610;2023-03-23T02:36:13;2.97;;;1.05;;
73089;SDS011;61269;49.450;8.610;2023-03-23T02:38:46;2.97;;;1.10;;
73089;SDS011;61269;49.450;8.610;2023-03-23T02:41:19;4.22;;;1.27;;
73089;SDS011;61269;49.450;8.610;2023-03-23T02:43:50;3.78;;;1.42;;
73089;SDS011;61269;49.450;8.610;2023-03-23T02:46:17;4.68;;;1.23;;
73089;SDS011;61269;49.450;8.610;2023-03-23T02:48:47;5.65;;;1.40;;
73089;SDS011;61269;49.450;8.610;2023-03-23T02:51:16;4.40;;;1.30;;
73089;SDS011;61269;49.450;8.610;2023-03-23T02:53:46;3.50;;;1.20;;
73089;SDS011;61269;49.450;8.610;2023-03-23T02:56:16;2.90;;;1.33;;
73089;SDS011;61269;49.450;8.610;2023-03-23T02:58:44;3.05;;;1.05;;
73089;SDS011;61269;49.450;8.610;2023-03-23T03:01:16;5.88;;;2.15;;
73089;SDS011;61269;49.450;8.610;2023-03-23T03:04:20;3.60;;;1.10;;
73089;SDS011;61269;49.450;8.610;2023-03-23T03:06:52;2.97;;;0.90;;
73089;SDS011;61269;49.450;8.610;2023-03-23T03:09:26;3.83;;;1.10;;
73089;SDS011;61269;49.450;8.610;2023-03-23T03:11:59;4.35;;;1.40;;
73089;SDS011;61269;49.450;8.610;2023-03-23T03:14:31;5.47;;;1.35;;
73089;SDS011;61269;49.450;8.610;2023-03-23T03:17:03;2.87;;;1.00;;
73089;SDS011;61269;49.450;8.610;2023-03-23T03:19:35;3.80;;;1.08;;
73089;SDS011;61269;49.450;8.610;2023-03-23T03:22:08;3.72;;;0.90;;
73089;SDS011;61269;49.450;8.610;2023-03-23T03:24:43;3.22;;;1.08;;
73089;SDS011;61269;49.450;8.610;2023-03-23T03:27:13;4.65;;;1.38;;
73089;SDS011;61269;49.450;8.610;2023-03-23T03:29:47;4.53;;;1.23;;
73089;SDS011;61269;49.450;8.610;2023-03-23T03:32:24;3.80;;;1.58;;
73089;SDS011;61269;49.450;8.610;2023-03-23T03:34:59;4.25;;;1.40;;
73089;SDS011;61269;49.450;8.610;2023-03-23T03:37:32;5.32;;;1.63;;
73089;SDS011;61269;49.450;8.610;2023-03-23T03:40:09;5.32;;;1.50;;
73089;SDS011;61269;49.450;8.610;2023-03-23T03:42:40;3.47;;;1.50;;
73089;SDS011;61269;49.450;8.610;2023-03-23T03:45:10;4.88;;;1.33;;
73089;SDS011;61269;49.450;8.610;2023-03-23T03:47:38;4.07;;;1.02;;
73089;SDS011;61269;49.450;8.610;2023-03-23T03:50:08;2.90;;;1.20;;
73089;SDS011;61269;49.450;8.610;2023-03-23T03:52:36;4.13;;;1.27;;
73089;SDS011;61269;49.450;8.610;2023-03-23T03:55:05;4.47;;;1.70;;
73089;SDS011;61269;49.450;8.610;2023-03-23T03:57:34;3.78;;;1.40;;
73089;SDS011;61269;49.450;8.610;2023-03-23T04:00:02;3.17;;;1.23;;
73089;SDS011;61269;49.450;8.610;2023-03-23T04:02:45;4.38;;;1.52;;
73089;SDS011;61269;49.450;8.610;2023-03-23T04:05:24;3.70;;;1.27;;
73089;SDS011;61269;49.450;8.610;2023-03-23T04:07:54;3.97;;;1.30;;
73089;SDS011;61269;49.450;8.610;2023-03-23T04:10:30;4.35;;;1.33;;
73089;SDS011;61269;49.450;8.610;2023-03-23T04:12:59;4.25;;;1.58;;
73089;SDS011;61269;49.450;8.610;2023-03-23T04:15:51;3.63;;;1.48;;
73089;SDS011;61269;49.450;8.610;2023-03-23T04:18:19;3.83;;;1.42;;
73089;SDS011;61269;49.450;8.610;2023-03-23T04:20:49;5.00;;;1.50;;
73089;SDS011;61269;49.450;8.610;2023-03-23T04:23:20;3.67;;;1.58;;
73089;SDS011;61269;49.450;8.610;2023-03-23T04:25:50;4.65;;;1.77;;
73089;SDS011;61269;49.450;8.610;2023-03-23T04:28:19;5.25;;;1.52;;
73089;SDS011;61269;49.450;8.610;2023-03-23T04:31:09;4.97;;;1.55;;
73089;SDS011;61269;49.450;8.610;2023-03-23T04:33:44;5.97;;;1.57;;
73089;SDS011;61269;49.450;8.610;2023-03-23T04:36:14;4.78;;;2.13;;
73089;SDS011;61269;49.450;8.610;2023-03-23T04:38:52;4.55;;;1.50;;
73089;SDS011;61269;49.450;8.610;2023-03-23T04:41:22;4.90;;;1.88;;
73089;SDS011;61269;49.450;8.610;2023-03-23T04:44:09;4.43;;;1.60;;
73089;SDS011;61269;49.450;8.610;2023-03-23T04:46:44;3.77;;;1.30;;
73089;SDS011;61269;49.450;8.610;2023-03-23T04:49:16;6.03;;;1.40;;
73089;SDS011;61269;49.450;8.610;2023-03-23T04:51:50;3.85;;;1.60;;
73089;SDS011;61269;49.450;8.610;2023-03-23T04:54:33;4.95;;;1.70;;
73089;SDS011;61269;49.450;8.610;2023-03-23T04:57:01;3.67;;;1.40;;
73089;SDS011;61269;49.450;8.610;2023-03-23T04:59:29;5.30;;;1.47;;
73089;SDS011;61269;49.450;8.610;2023-03-23T05:02:04;4.82;;;1.60;;
73089;SDS011;61269;49.450;8.610;2023-03-23T05:04:32;4.55;;;1.63;;
73089;SDS011;61269;49.450;8.610;2023-03-23T05:07:06;4.55;;;1.83;;
73089;SDS011;61269;49.450;8.610;2023-03-23T05:09:40;5.32;;;1.70;;
73089;SDS011;61269;49.450;8.610;2023-03-23T05:12:08;6.30;;;2.10;;
73089;SDS011;61269;49.450;8.610;2023-03-23T05:14:47;4.75;;;2.00;;
73089;SDS011;61269;49.450;8.610;2023-03-23T05:17:18;5.28;;;1.75;;
73089;SDS011;61269;49.450;8.610;2023-03-23T05:19:48;4.43;;;1.38;;
73089;SDS011;61269;49.450;8.610;2023-03-23T05:22:36;4.53;;;1.60;;
73089;SDS011;61269;49.450;8.610;2023-03-23T05:25:05;5.37;;;1.60;;
73089;SDS011;61269;49.450;8.610;2023-03-23T05:27:38;5.85;;;1.63;;
73089;SDS011;61269;49.450;8.610;2023-03-23T05:30:20;5.35;;;1.67;;
73089;SDS011;61269;49.450;8.610;2023-03-23T05:32:48;4.07;;;1.65;;
73089;SDS011;61269;49.450;8.610;2023-03-23T05:35:42;4.68;;;1.33;;
73089;SDS011;61269;49.450;8.610;2023-03-23T05:38:11;2.80;;;1.20;;
73089;SDS011;61269;49.450;8.610;2023-03-23T05:40:38;3.53;;;1.33;;
73089;SDS011;61269;49.450;8.610;2023-03-23T05:43:12;5.88;;;1.60;;
73089;SDS011;61269;49.450;8.610;2023-03-23T05:45:58;4.43;;;1.17;;
73089;SDS011;61269;49.450;8.610;2023-03-23T05:48:26;4.35;;;1.60;;
73089;SDS011;61269;49.450;8.610;2023-03-23T05:50:53;3.73;;;1.50;;
73089;SDS011;61269;49.450;8.610;2023-03-23T05:53:24;4.47;;;1.30;;
73089;SDS011;61269;49.450;8.610;2023-03-23T05:55:52;6.85;;;2.95;;
73089;SDS011;61269;49.450;8.610;2023-03-23T05:58:29;6.60;;;4.20;;
73089;SDS011;61269;49.450;8.610;2023-03-23T06:00:57;7.65;;;3.88;;
73089;SDS011;61269;49.450;8.610;2023-03-23T06:03:28;5.33;;;2.33;;
73089;SDS011;61269;49.450;8.610;2023-03-23T06:06:01;4.32;;;1.73;;
73089;SDS011;61269;49.450;8.610;2023-03-23T06:08:47;5.35;;;2.35;;
73089;SDS011;61269;49.450;8.610;2023-03-23T06:11:18;4.90;;;2.20;;
73089;SDS011;61269;49.450;8.610;2023-03-23T06:13:59;5.70;;;2.40;;
73089;SDS011;61269;49.450;8.610;2023-03-23T06:16:28;5.53;;;1.97;;
73089;SDS011;61269;49.450;8.610;2023-03-23T06:18:57;6.15;;;2.22;;
73089;SDS011;61269;49.450;8.610;2023-03-23T06:21:32;4.95;;;2.10;;
73089;SDS011;61269;49.450;8.610;2023-03-23T06:24:21;4.30;;;2.13;;
73089;SDS011;61269;49.450;8.610;2023-03-23T06:26:49;4.38;;;1.80;;
73089;SDS011;61269;49.450;8.610;2023-03-23T06:29:20;4.47;;;1.70;;
73089;SDS011;61269;49.450;8.610;2023-03-23T06:31:54;4.00;;;1.50;;
73089;SDS011;61269;49.450;8.610;2023-03-23T06:34:26;4.78;;;1.63;;
73089;SDS011;61269;49.450;8.610;2023-03-23T06:37:05;4.30;;;1.73;;
73089;SDS011;61269;49.450;8.610;2023-03-23T06:39:38;3.80;;;1.55;;
73089;SDS011;61269;49.450;8.610;2023-03-23T06:42:18;4.63;;;1.80;;
73089;SDS011;61269;49.450;8.610;2023-03-23T06:44:54;4.85;;;1.63;;
73089;SDS011;61269;49.450;8.610;2023-03-23T06:47:23;5.00;;;1.88;;
73089;SDS011;61269;49.450;8.610;2023-03-23T06:49:51;3.67;;;1.42;;
73089;SDS011;61269;49.450;8.610;2023-03-23T06:52:23;4.15;;;1.38;;
73089;SDS011;61269;49.450;8.610;2023-03-23T06:54:51;5.27;;;2.00;;
73089;SDS011;61269;49.450;8.610;2023-03-23T06:57:20;4.63;;;2.20;;
73089;SDS011;61269;49.450;8.610;2023-03-23T06:59:49;5.50;;;2.05;;
73089;SDS011;61269;49.450;8.610;2023-03-23T07:02:17;6.20;;;1.95;;
73089;SDS011;61269;49.450;8.610;2023-03-23T07:04:48;4.45;;;1.60;;
73089;SDS011;61269;49.450;8.610;2023-03-23T07:07:20;4.50;;;1.60;;
73089;SDS011;61269;49.450;8.610;2023-03-23T07:10:02;3.97;;;1.60;;
73089;SDS011;61269;49.450;8.610;2023-03-23T07:12:30;3.22;;;1.17;;
73089;SDS011;61269;49.450;8.610;2023-03-23T07:14:59;3.33;;;1.00;;
73089;SDS011;61269;49.450;8.610;2023-03-23T07:17:26;3.35;;;1.20;;
73089;SDS011;61269;49.450;8.610;2023-03-23T07:20:14;4.03;;;1.43;;
73089;SDS011;61269;49.450;8.610;2023-03-23T07:22:41;4.60;;;1.40;;
73089;SDS011;61269;49.450;8.610;2023-03-23T07:25:21;2.72;;;1.27;;
73089;SDS011;61269;49.450;8.610;2023-03-23T07:27:53;4.18;;;1.40;;
73089;SDS011;61269;49.450;8.610;2023-03-23T07:30:21;3.13;;;1.27;;
73089;SDS011;61269;49.450;8.610;2023-03-23T07:32:48;4.33;;;1.33;;
73089;SDS011;61269;49.450;8.610;2023-03-23T07:35:15;2.95;;;1.00;;
73089;SDS011;61269;49.450;8.610;2023-03-23T07:38:02;2.17;;;0.90;;
73089;SDS011;61269;49.450;8.610;2023-03-23T07:40:31;2.83;;;1.10;;
73089;SDS011;61269;49.450;8.610;2023-03-23T07:43:05;2.33;;;1.00;;
73089;SDS011;61269;49.450;8.610;2023-03-23T07:45:48;2.70;;;0.80;;
73089;SDS011;61269;49.450;8.610;2023-03-23T07:48:16;2.53;;;0.68;;
73089;SDS011;61269;49.450;8.610;2023-03-23T07:50:44;2.55;;;0.95;;
73089;SDS011;61269;49.450;8.610;2023-03-23T07:53:13;2.92;;;1.10;;
73089;SDS011;61269;49.450;8.610;2023-03-23T07:55:45;2.17;;;0.70;;
73089;SDS011;61269;49.450;8.610;2023-03-23T07:58:46;2.80;;;0.80;;
73089;SDS011;61269;49.450;8.610;2023-03-23T08:01:13;2.28;;;1.27;;
73089;SDS011;61269;49.450;8.610;2023-03-23T08:03:47;1.95;;;0.90;;
73089;SDS011;61269;49.450;8.610;2023-03-23T08:06:37;2.85;;;1.20;;
73089;SDS011;61269;49.450;8.610;2023-03-23T08:09:21;2.28;;;0.93;;
73089;SDS011;61269;49.450;8.610;2023-03-23T08:11:59;3.57;;;1.10;;
73089;SDS011;61269;49.450;8.610;2023-03-23T08:14:56;3.38;;;1.27;;
73089;SDS011;61269;49.450;8.610;2023-03-23T08:17:50;4.40;;;1.20;;
73089;SDS011;61269;49.450;8.610;2023-03-23T08:20:40;2.45;;;1.05;;
73089;SDS011;61269;49.450;8.610;2023-03-23T08:23:27;3.20;;;1.20;;
73089;SDS011;61269;49.450;8.610;2023-03-23T08:26:12;2.20;;;0.90;;
73089;SDS011;61269;49.450;8.610;2023-03-23T08:28:59;2.53;;;1.15;;
73089;SDS011;61269;49.450;8.610;2023-03-23T08:31:45;3.33;;;1.25;;
73089;SDS011;61269;49.450;8.610;2023-03-23T08:34:26;4.43;;;1.55;;
73089;SDS011;61269;49.450;8.610;2023-03-23T08:37:07;3.35;;;1.33;;
73089;SDS011;61269;49.450;8.610;2023-03-23T08:39:54;2.30;;;0.97;;
73089;SDS011;61269;49.450;8.610;2023-03-23T08:42:50;3.60;;;1.30;;
73089;SDS011;61269;49.450;8.610;2023-03-23T08:45:38;4.28;;;1.10;;
73089;SDS011;61269;49.450;8.610;2023-03-23T08:48:36;2.65;;;1.33;;
73089;SDS011;61269;49.450;8.610;2023-03-23T08:51:04;2.80;;;0.90;;
73089;SDS011;61269;49.450;8.610;2023-03-23T08:53:55;2.87;;;1.30;;
73089;SDS011;61269;49.450;8.610;2023-03-23T08:56:43;5.35;;;1.30;;
73089;SDS011;61269;49.450;8.610;2023-03-23T08:59:31;4.18;;;1.20;;
73089;SDS011;61269;49.450;8.610;2023-03-23T09:02:13;3.50;;;1.00;;
73089;SDS011;61269;49.450;8.610;2023-03-23T09:04:51;2.58;;;1.23;;
73089;SDS011;61269;49.450;8.610;2023-03-23T09:07:39;2.93;;;1.40;;
73089;SDS011;61269;49.450;8.610;2023-03-23T09:10:07;3.45;;;1.38;;
73089;SDS011;61269;49.450;8.610;2023-03-23T09:12:35;2.47;;;1.25;;
73089;SDS011;61269;49.450;8.610;2023-03-23T09:15:03;2.20;;;1.20;;
73089;SDS011;61269;49.450;8.610;2023-03-23T09:17:36;2.60;;;0.98;;
73089;SDS011;61269;49.450;8.610;2023-03-23T09:20:04;3.00;;;1.00;;
73089;SDS011;61269;49.450;8.610;2023-03-23T09:22:36;2.40;;;1.15;;
73089;SDS011;61269;49.450;8.610;2023-03-23T09:25:04;2.42;;;0.90;;
73089;SDS011;61269;49.450;8.610;2023-03-23T09:27:32;2.97;;;1.17;;
73089;SDS011;61269;49.450;8.610;2023-03-23T09:29:59;2.88;;;1.25;;
73089;SDS011;61269;49.450;8.610;2023-03-23T09:32:27;3.53;;;1.17;;
73089;SDS011;61269;49.450;8.610;2023-03-23T09:34:55;5.07;;;1.50;;
73089;SDS011;61269;49.450;8.610;2023-03-23T09:37:23;2.63;;;0.90;;
73089;SDS011;61269;49.450;8.610;2023-03-23T09:39:50;4.25;;;1.40;;
73089;SDS011;61269;49.450;8.610;2023-03-23T09:42:21;3.55;;;1.35;;
73089;SDS011;61269;49.450;8.610;2023-03-23T09:45:00;4.83;;;1.70;;
73089;SDS011;61269;49.450;8.610;2023-03-23T09:47:35;3.88;;;1.05;;
73089;SDS011;61269;49.450;8.610;2023-03-23T09:50:10;3.78;;;1.27;;
73089;SDS011;61269;49.450;8.610;2023-03-23T09:52:41;3.63;;;1.17;;
73089;SDS011;61269;49.450;8.610;2023-03-23T09:55:12;4.10;;;1.42;;
73089;SDS011;61269;49.450;8.610;2023-03-23T09:57:44;2.80;;;1.50;;
73089;SDS011;61269;49.450;8.610;2023-03-23T10:00:18;4.30;;;1.67;;
73089;SDS011;61269;49.450;8.610;2023-03-23T10:02:52;5.97;;;1.92;;
73089;SDS011;61269;49.450;8.610;2023-03-23T10:05:28;2.78;;;1.10;;
73089;SDS011;61269;49.450;8.610;2023-03-23T10:07:58;3.60;;;1.45;;
73089;SDS011;61269;49.450;8.610;2023-03-23T10:10:28;4.03;;;1.40;;
73089;SDS011;61269;49.450;8.610;2023-03-23T10:12:59;2.70;;;1.00;;
73089;SDS011;61269;49.450;8.610;2023-03-23T10:15:30;2.45;;;0.90;;
73089;SDS011;61269;49.450;8.610;2023-03-23T10:18:01;2.58;;;1.10;;
73089;SDS011;61269;49.450;8.610;2023-03-23T10:20:37;2.50;;;0.70;;
73089;SDS011;61269;49.450;8.610;2023-03-23T10:23:13;1.93;;;0.83;;
73089;SDS011;61269;49.450;8.610;2023-03-23T10:25:43;2.75;;;1.05;;
73089;SDS011;61269;49.450;8.610;2023-03-23T10:28:16;3.17;;;1.02;;
73089;SDS011;61269;49.450;8.610;2023-03-23T10:30:45;2.63;;;0.75;;
73089;SDS011;61269;49.450;8.610;2023-03-23T10:33:15;4.25;;;1.23;;
73089;SDS011;61269;49.450;8.610;2023-03-23T10:35:47;2.53;;;1.07;;
73089;SDS011;61269;49.450;8.610;2023-03-23T10:38:18;3.78;;;1.02;;
73089;SDS011;61269;49.450;8.610;2023-03-23T10:40:48;3.65;;;0.90;;
73089;SDS011;61269;49.450;8.610;2023-03-23T10:43:18;3.50;;;0.93;;
73089;SDS011;61269;49.450;8.610;2023-03-23T10:45:48;2.67;;;1.05;;
73089;SDS011;61269;49.450;8.610;2023-03-23T10:48:17;2.27;;;1.10;;
73089;SDS011;61269;49.450;8.610;2023-03-23T10:50:49;2.97;;;1.10;;
73089;SDS011;61269;49.450;8.610;2023-03-23T10:53:20;3.15;;;1.10;;
73089;SDS011;61269;49.450;8.610;2023-03-23T10:55:49;2.38;;;1.00;;
73089;SDS011;61269;49.450;8.610;2023-03-23T10:58:22;3.13;;;1.30;;
73089;SDS011;61269;49.450;8.610;2023-03-23T11:00:50;2.87;;;1.10;;
73089;SDS011;61269;49.450;8.610;2023-03-23T11:06:19;2.67;;;1.10;;
73089;SDS011;61269;49.450;8.610;2023-03-23T11:08:49;3.38;;;1.25;;
73089;SDS011;61269;49.450;8.610;2023-03-23T11:11:19;2.10;;;1.10;;
73089;SDS011;61269;49.450;8.610;2023-03-23T11:13:49;2.23;;;0.80;;
73089;SDS011;61269;49.450;8.610;2023-03-23T11:16:23;3.33;;;0.90;;
73089;SDS011;61269;49.450;8.610;2023-03-23T11:18:51;2.60;;;1.10;;
73089;SDS011;61269;49.450;8.610;2023-03-23T11:21:22;3.78;;;1.13;;
73089;SDS011;61269;49.450;8.610;2023-03-23T11:23:51;2.88;;;0.90;;
73089;SDS011;61269;49.450;8.610;2023-03-23T11:26:20;2.37;;;1.07;;
73089;SDS011;61269;49.450;8.610;2023-03-23T11:28:51;2.05;;;0.70;;
73089;SDS011;61269;49.450;8.610;2023-03-23T11:31:21;2.03;;;0.80;;
73089;SDS011;61269;49.450;8.610;2023-03-23T11:33:52;2.88;;;1.13;;
73089;SDS011;61269;49.450;8.610;2023-03-23T11:36:28;3.20;;;1.30;;
73089;SDS011;61269;49.450;8.610;2023-03-23T11:38:56;3.30;;;1.50;;
73089;SDS011;61269;49.450;8.610;2023-03-23T11:41:24;3.88;;;1.15;;
73089;SDS011;61269;49.450;8.610;2023-03-23T11:43:52;3.88;;;1.60;;
73089;SDS011;61269;49.450;8.610;2023-03-23T11:46:28;4.05;;;1.88;;
73089;SDS011;61269;49.450;8.610;2023-03-23T11:48:59;6.63;;;3.20;;
73089;SDS011;61269;49.450;8.610;2023-03-23T11:51:32;3.73;;;1.60;;
73089;SDS011;61269;49.450;8.610;2023-03-23T11:54:09;2.85;;;0.70;;
73089;SDS011;61269;49.450;8.610;2023-03-23T11:56:39;3.60;;;0.90;;
73089;SDS011;61269;49.450;8.610;2023-03-23T11:59:10;1.90;;;0.90;;
73089;SDS011;61269;49.450;8.610;2023-03-23T12:01:43;3.35;;;1.00;;
73089;SDS011;61269;49.450;8.610;2023-03-23T12:04:34;3.70;;;1.20;;
73089;SDS011;61269;49.450;8.610;2023-03-23T12:07:11;2.17;;;0.80;;
73089;SDS011;61269;49.450;8.610;2023-03-23T12:09:47;3.40;;;1.15;;
73089;SDS011;61269;49.450;8.610;2023-03-23T12:12:19;2.13;;;0.93;;
73089;SDS011;61269;49.450;8.610;2023-03-23T12:14:53;2.53;;;1.15;;
73089;SDS011;61269;49.450;8.610;2023-03-23T12:17:29;2.70;;;1.20;;
73089;SDS011;61269;49.450;8.610;2023-03-23T12:20:08;2.47;;;1.02;;
73089;SDS011;61269;49.450;8.610;2023-03-23T12:22:46;2.97;;;1.27;;
73089;SDS011;61269;49.450;8.610;2023-03-23T12:25:30;2.60;;;1.00;;
73089;SDS011;61269;49.450;8.610;2023-03-23T12:28:07;2.25;;;0.98;;
73089;SDS011;61269;49.450;8.610;2023-03-23T12:30:44;2.43;;;1.10;;
73089;SDS011;61269;49.450;8.610;2023-03-23T12:33:21;2.88;;;1.10;;
73089;SDS011;61269;49.450;8.610;2023-03-23T12:35:59;2.30;;;1.00;;
73089;SDS011;61269;49.450;8.610;2023-03-23T12:38:36;1.90;;;0.70;;
73089;SDS011;61269;49.450;8.610;2023-03-23T12:41:15;3.15;;;1.10;;
73089;SDS011;61269;49.450;8.610;2023-03-23T12:43:47;3.33;;;1.33;;
73089;SDS011;61269;49.450;8.610;2023-03-23T12:46:21;3.22;;;1.30;;
73089;SDS011;61269;49.450;8.610;2023-03-23T12:49:07;3.28;;;1.25;;
73089;SDS011;61269;49.450;8.610;2023-03-23T12:51:38;2.50;;;1.00;;
73089;SDS011;61269;49.450;8.610;2023-03-23T12:54:11;6.15;;;1.67;;
73089;SDS011;61269;49.450;8.610;2023-03-23T12:56:46;2.97;;;1.10;;
73089;SDS011;61269;49.450;8.610;2023-03-23T12:59:19;5.78;;;1.33;;
73089;SDS011;61269;49.450;8.610;2023-03-23T13:01:50;3.13;;;1.00;;
73089;SDS011;61269;49.450;8.610;2023-03-23T13:04:20;4.22;;;1.10;;
73089;SDS011;61269;49.450;8.610;2023-03-23T13:06:49;3.60;;;1.00;;
73089;SDS011;61269;49.450;8.610;2023-03-23T13:09:19;4.67;;;1.60;;
73089;SDS011;61269;49.450;8.610;2023-03-23T13:11:49;3.25;;;1.27;;
73089;SDS011;61269;49.450;8.610;2023-03-23T13:14:21;3.75;;;1.40;;
73089;SDS011;61269;49.450;8.610;2023-03-23T13:16:59;3.13;;;1.30;;
73089;SDS011;61269;49.450;8.610;2023-03-23T13:19:32;3.10;;;1.20;;
73089;SDS011;61269;49.450;8.610;2023-03-23T13:22:04;4.50;;;1.57;;
73089;SDS011;61269;49.450;8.610;2023-03-23T13:24:36;3.60;;;1.40;;
73089;SDS011;61269;49.450;8.610;2023-03-23T13:27:06;4.05;;;1.60;;
73089;SDS011;61269;49.450;8.610;2023-03-23T13:29:43;5.20;;;1.75;;
73089;SDS011;61269;49.450;8.610;2023-03-23T13:32:12;3.05;;;1.33;;
73089;SDS011;61269;49.450;8.610;2023-03-23T13:34:41;4.27;;;1.57;;
73089;SDS011;61269;49.450;8.610;2023-03-23T13:37:10;3.92;;;1.48;;
73089;SDS011;61269;49.450;8.610;2023-03-23T13:39:48;3.83;;;1.60;;
73089;SDS011;61269;49.450;8.610;2023-03-23T13:42:18;3.65;;;1.30;;
73089;SDS011;61269;49.450;8.610;2023-03-23T13:44:55;3.95;;;1.65;;
73089;SDS011;61269;49.450;8.610;2023-03-23T13:47:28;6.87;;;2.70;;
73089;SDS011;61269;49.450;8.610;2023-03-23T13:49:57;5.93;;;1.95;;
73089;SDS011;61269;49.450;8.610;2023-03-23T13:52:36;3.63;;;1.80;;
73089;SDS011;61269;49.450;8.610;2023-03-23T13:55:12;3.72;;;1.23;;
73089;SDS011;61269;49.450;8.610;2023-03-23T13:57:49;3.55;;;1.52;;
73089;SDS011;61269;49.450;8.610;2023-03-23T14:03:13;7.05;;;1.50;;
73089;SDS011;61269;49.450;8.610;2023-03-23T14:05:44;4.38;;;1.40;;
73089;SDS011;61269;49.450;8.610;2023-03-23T14:08:22;4.15;;;1.52;;
73089;SDS011;61269;49.450;8.610;2023-03-23T14:10:53;5.78;;;2.17;;
73089;SDS011;61269;49.450;8.610;2023-03-23T14:13:24;4.20;;;1.37;;
73089;SDS011;61269;49.450;8.610;2023-03-23T14:15:56;4.63;;;1.33;;
73089;SDS011;61269;49.450;8.610;2023-03-23T14:18:26;4.10;;;1.80;;
73089;SDS011;61269;49.450;8.610;2023-03-23T14:20:57;4.38;;;1.58;;
73089;SDS011;61269;49.450;8.610;2023-03-23T14:23:25;3.35;;;1.13;;
73089;SDS011;61269;49.450;8.610;2023-03-23T14:25:56;7.23;;;1.77;;
73089;SDS011;61269;49.450;8.610;2023-03-23T14:28:37;4.20;;;1.35;;
73089;SDS011;61269;49.450;8.610;2023-03-23T14:31:08;4.85;;;1.42;;
73089;SDS011;61269;49.450;8.610;2023-03-23T14:33:41;3.78;;;1.63;;
73089;SDS011;61269;49.450;8.610;2023-03-23T14:36:08;5.43;;;1.45;;
73089;SDS011;61269;49.450;8.610;2023-03-23T14:38:36;4.40;;;1.50;;
73089;SDS011;61269;49.450;8.610;2023-03-23T14:41:06;3.95;;;1.50;;
73089;SDS011;61269;49.450;8.610;2023-03-23T14:43:34;5.45;;;1.73;;
73089;SDS011;61269;49.450;8.610;2023-03-23T14:46:05;5.18;;;1.67;;
73089;SDS011;61269;49.450;8.610;2023-03-23T14:48:33;4.95;;;1.70;;
73089;SDS011;61269;49.450;8.610;2023-03-23T14:51:01;4.33;;;1.67;;
73089;SDS011;61269;49.450;8.610;2023-03-23T14:53:31;6.20;;;2.28;;
73089;SDS011;61269;49.450;8.610;2023-03-23T14:56:00;5.20;;;1.73;;
73089;SDS011;61269;49.450;8.610;2023-03-23T14:58:31;5.63;;;2.25;;
73089;SDS011;61269;49.450;8.610;2023-03-23T15:00:59;4.63;;;1.88;;
73089;SDS011;61269;49.450;8.610;2023-03-23T15:03:32;5.60;;;1.87;;
73089;SDS011;61269;49.450;8.610;2023-03-23T15:06:03;5.03;;;1.77;;
73089;SDS011;61269;49.450;8.610;2023-03-23T15:08:33;5.97;;;2.05;;
73089;SDS011;61269;49.450;8.610;2023-03-23T15:11:05;5.18;;;1.70;;
73089;SDS011;61269;49.450;8.610;2023-03-23T15:13:35;5.78;;;1.83;;
73089;SDS011;61269;49.450;8.610;2023-03-23T15:16:03;3.77;;;1.20;;
73089;SDS011;61269;49.450;8.610;2023-03-23T15:18:34;4.05;;;1.60;;
73089;SDS011;61269;49.450;8.610;2023-03-23T15:21:09;5.40;;;1.60;;
73089;SDS011;61269;49.450;8.610;2023-03-23T15:23:42;5.38;;;1.55;;
73089;SDS011;61269;49.450;8.610;2023-03-23T15:26:19;2.78;;;1.02;;
73089;SDS011;61269;49.450;8.610;2023-03-23T15:29:00;4.00;;;1.47;;
73089;SDS011;61269;49.450;8.610;2023-03-23T15:31:28;5.32;;;1.60;;
73089;SDS011;61269;49.450;8.610;2023-03-23T15:33:56;4.70;;;1.88;;
73089;SDS011;61269;49.450;8.610;2023-03-23T15:36:25;4.95;;;1.80;;